createdAt,value
2022-09-28T00:01:44.944Z,7.73
2022-09-28T00:04:48.955Z,11.53
2022-09-28T00:07:51.777Z,4.30
2022-09-28T00:10:56.055Z,11.13
2022-09-28T00:14:03.407Z,7.23
2022-09-28T00:17:05.987Z,6.63
2022-09-28T00:20:10.596Z,6.60
2022-09-28T00:23:13.193Z,6.17
2022-09-28T00:26:15.734Z,7.47
2022-09-28T00:29:21.809Z,4.87
2022-09-28T00:32:25.043Z,5.07
2022-09-28T00:35:28.967Z,10.20
2022-09-28T00:38:31.530Z,6.20
2022-09-28T00:41:34.265Z,9.80
2022-09-28T00:44:42.361Z,4.83
2022-09-28T00:47:51.407Z,4.37
2022-09-28T00:50:56.025Z,5.77
2022-09-28T00:54:00.651Z,4.67
2022-09-28T00:57:04.965Z,9.93
2022-09-28T01:00:09.374Z,6.57
2022-09-28T01:03:14.185Z,5.83
2022-09-28T01:06:20.260Z,5.60
2022-09-28T01:09:23.314Z,7.53
2022-09-28T01:12:26.088Z,7.10
2022-09-28T01:15:30.742Z,8.47
2022-09-28T01:18:41.042Z,4.77
2022-09-28T01:21:51.878Z,4.67
2022-09-28T01:25:01.029Z,9.93
2022-09-28T01:28:08.704Z,5.20
2022-09-28T01:31:13.643Z,4.57
2022-09-28T01:34:22.173Z,4.63
2022-09-28T01:37:29.467Z,4.50
2022-09-28T01:40:33.806Z,6.13
2022-09-28T01:43:41.477Z,5.17
2022-09-28T01:46:48.181Z,5.00
2022-09-28T01:49:57.481Z,5.43
2022-09-28T01:53:06.702Z,5.53
2022-09-28T01:56:14.284Z,9.30
2022-09-28T01:59:20.721Z,10.23
2022-09-28T02:02:27.539Z,8.20
2022-09-28T02:05:33.808Z,6.80
2022-09-28T02:08:40.985Z,5.40
2022-09-28T02:11:48.273Z,6.93
2022-09-28T02:14:56.222Z,8.30
2022-09-28T02:17:58.891Z,7.23
2022-09-28T02:21:09.853Z,6.70
2022-09-28T02:24:21.356Z,6.07
2022-09-28T02:27:32.763Z,7.07
2022-09-28T02:30:38.876Z,7.73
2022-09-28T02:33:44.556Z,9.13
2022-09-28T02:36:47.944Z,8.27
2022-09-28T02:39:50.415Z,15.33
2022-09-28T02:43:03.164Z,8.03
2022-09-28T02:46:17.589Z,8.97
2022-09-28T02:49:28.908Z,6.30
2022-09-28T02:52:51.344Z,8.67
2022-09-28T02:56:11.491Z,15.00
2022-09-28T02:59:21.653Z,15.57
2022-09-28T03:02:34.994Z,10.43
2022-09-28T03:05:47.600Z,5.63
2022-09-28T03:08:55.738Z,5.83
2022-09-28T03:12:02.065Z,6.70
2022-09-28T03:15:13.190Z,6.67
2022-09-28T03:18:17.266Z,7.47
2022-09-28T03:21:19.856Z,9.77
2022-09-28T03:24:22.509Z,7.07
2022-09-28T03:27:25.077Z,10.70
2022-09-28T03:30:27.719Z,10.27
2022-09-28T03:33:31.765Z,7.55
2022-09-28T03:36:34.270Z,7.47
2022-09-28T03:39:36.802Z,7.27
2022-09-28T03:42:39.292Z,8.50
2022-09-28T03:45:41.843Z,7.83
2022-09-28T03:48:45.823Z,7.20
2022-09-28T03:51:48.310Z,6.60
2022-09-28T03:54:50.807Z,6.80
2022-09-28T03:57:56.604Z,8.03
2022-09-28T04:01:03.773Z,12.20
2022-09-28T04:04:07.666Z,16.10
2022-09-28T04:07:10.148Z,15.53
2022-09-28T04:10:12.650Z,11.53
2022-09-28T04:13:15.705Z,14.20
2022-09-28T04:16:18.905Z,12.37
2022-09-28T04:19:22.965Z,16.97
2022-09-28T04:22:25.470Z,11.57
2022-09-28T04:25:27.940Z,9.23
2022-09-28T04:28:48.069Z,10.77
2022-09-28T04:31:52.790Z,11.63
2022-09-28T04:34:56.771Z,11.43
2022-09-28T04:37:59.239Z,8.30
2022-09-28T04:41:02.159Z,13.10
2022-09-28T04:44:04.683Z,21.00
2022-09-28T04:47:07.197Z,10.77
2022-09-28T04:50:11.295Z,12.40
2022-09-28T04:53:13.782Z,15.03
2022-09-28T04:56:17.593Z,16.13
2022-09-28T04:59:20.066Z,14.37
2022-09-28T05:02:22.658Z,10.47
2022-09-28T05:05:26.515Z,22.43
2022-09-28T05:08:29.500Z,20.03
2022-09-28T05:11:31.971Z,16.97
2022-09-28T05:14:34.478Z,18.73
2022-09-28T05:17:37.057Z,15.10
2022-09-28T05:20:42.754Z,14.43
2022-09-28T05:23:47.651Z,17.23
2022-09-28T05:26:50.191Z,17.53
2022-09-28T05:29:52.713Z,19.43
2022-09-28T05:32:55.176Z,13.70
2022-09-28T05:36:01.352Z,16.10
2022-09-28T05:39:04.436Z,17.37
2022-09-28T05:42:07.893Z,15.43
2022-09-28T05:45:11.621Z,20.17
2022-09-28T05:48:14.089Z,20.23
2022-09-28T05:51:17.944Z,21.47
2022-09-28T05:54:20.657Z,19.10
2022-09-28T05:57:23.277Z,23.23
2022-09-28T06:00:26.083Z,23.47
2022-09-28T06:03:28.612Z,21.13
2022-09-28T06:06:32.468Z,31.80
2022-09-28T06:09:34.949Z,20.43
2022-09-28T06:12:37.398Z,19.93
2022-09-28T06:15:43.401Z,25.37
2022-09-28T06:18:45.866Z,22.73
2022-09-28T06:21:49.691Z,24.47
2022-09-28T06:24:52.183Z,27.23
2022-09-28T06:27:56.363Z,25.03
2022-09-28T06:31:00.642Z,26.87
2022-09-28T06:34:03.148Z,25.37
2022-09-28T06:37:06.943Z,24.87
2022-09-28T06:40:10.181Z,25.20
2022-09-28T06:43:15.114Z,27.40
2022-09-28T06:46:17.683Z,24.57
2022-09-28T06:49:20.186Z,29.27
2022-09-28T06:52:24.023Z,30.67
2022-09-28T06:55:27.404Z,24.80
2022-09-28T06:58:31.431Z,28.07
2022-09-28T07:01:33.941Z,26.20
2022-09-28T07:04:36.625Z,27.00
2022-09-28T07:07:42.841Z,27.67
2022-09-28T07:10:47.410Z,31.43
2022-09-28T07:13:51.375Z,25.97
2022-09-28T07:17:12.251Z,27.67
2022-09-28T07:20:19.467Z,27.90
2022-09-28T07:23:23.835Z,31.67
2022-09-28T07:26:26.697Z,27.23
2022-09-28T07:29:29.145Z,31.50
2022-09-28T07:35:41.691Z,29.77
2022-09-28T07:38:45.489Z,29.57
2022-09-28T07:41:48.777Z,32.20
2022-09-28T07:44:51.364Z,31.87
2022-09-28T07:47:56.321Z,30.13
2022-09-28T07:51:00.123Z,32.33
2022-09-28T07:54:03.952Z,33.90
2022-09-28T07:57:06.908Z,33.83
2022-09-28T08:00:10.669Z,33.90
2022-09-28T08:03:13.174Z,37.77
2022-09-28T08:06:17.590Z,36.37
2022-09-28T08:09:21.408Z,33.30
2022-09-28T08:12:23.885Z,33.43
2022-09-28T08:15:27.153Z,32.47
2022-09-28T08:18:29.869Z,30.50
2022-09-28T08:21:46.276Z,33.77
2022-09-28T08:24:50.562Z,33.30
2022-09-28T08:27:53.076Z,31.70
2022-09-28T08:30:55.653Z,32.70
2022-09-28T08:33:58.607Z,29.77
2022-09-28T08:37:01.081Z,29.53
2022-09-28T08:40:05.691Z,33.23
2022-09-28T08:43:23.622Z,32.63
2022-09-28T08:46:29.508Z,35.33
2022-09-28T08:49:37.821Z,34.47
2022-09-28T08:52:41.549Z,30.17
2022-09-28T08:55:46.361Z,31.50
2022-09-28T08:58:55.432Z,29.17
2022-09-28T09:02:03.415Z,27.33
2022-09-28T09:05:08.922Z,28.27
2022-09-28T09:08:27.090Z,29.27
2022-09-28T09:11:45.144Z,27.47
2022-09-28T09:15:13.005Z,29.70
2022-09-28T09:18:27.397Z,27.63
2022-09-28T09:21:40.963Z,32.60
2022-09-28T09:24:50.635Z,32.23
2022-09-28T09:28:28.237Z,26.90
2022-09-28T09:31:42.731Z,28.57
2022-09-28T09:35:05.463Z,26.27
2022-09-28T09:38:21.988Z,29.50
2022-09-28T09:41:39.993Z,28.40
2022-09-28T09:44:59.757Z,29.03
2022-09-28T09:48:04.663Z,30.50
2022-09-28T09:51:18.973Z,26.10
2022-09-28T09:54:27.660Z,27.73
2022-09-28T09:57:34.377Z,30.80
2022-09-28T10:00:41.796Z,27.33
2022-09-28T10:03:48.760Z,25.70
2022-09-28T10:06:54.428Z,24.67
2022-09-28T10:09:59.302Z,24.90
2022-09-28T10:13:02.534Z,26.40
2022-09-28T10:16:08.065Z,23.27
2022-09-28T10:19:12.871Z,29.93
2022-09-28T10:22:23.724Z,22.13
2022-09-28T10:25:26.449Z,21.90
2022-09-28T10:28:36.515Z,21.77
2022-09-28T10:31:42.523Z,24.10
2022-09-28T10:34:48.839Z,27.93
2022-09-28T10:37:59.169Z,25.90
2022-09-28T10:41:09.520Z,22.10
2022-09-28T10:44:19.360Z,24.93
2022-09-28T10:47:25.520Z,22.17
2022-09-28T10:50:29.416Z,20.60
2022-09-28T10:53:32.025Z,24.10
2022-09-28T10:56:38.043Z,20.77
2022-09-28T10:59:42.542Z,22.43
2022-09-28T11:02:46.464Z,18.90
2022-09-28T11:06:01.657Z,22.13
2022-09-28T11:09:08.425Z,23.83
2022-09-28T11:12:18.127Z,25.03
2022-09-28T11:15:23.295Z,23.13
2022-09-28T11:18:32.328Z,19.30
2022-09-28T11:21:42.863Z,21.97
2022-09-28T11:24:45.404Z,19.23
2022-09-28T11:27:57.929Z,18.50
2022-09-28T11:31:01.773Z,19.93
2022-09-28T11:34:14.288Z,18.67
2022-09-28T11:37:44.433Z,16.10
2022-09-28T11:41:01.284Z,16.60
2022-09-28T11:44:19.380Z,18.20
2022-09-28T11:47:55.956Z,17.50
2022-09-28T11:51:05.149Z,15.47
2022-09-28T11:54:16.555Z,16.43
2022-09-28T11:57:23.097Z,15.50
2022-09-28T12:00:26.058Z,18.77
2022-09-28T12:03:36.762Z,18.07
2022-09-28T12:06:45.983Z,14.53
2022-09-28T12:09:55.013Z,13.03
2022-09-28T12:13:02.470Z,14.57
2022-09-28T12:19:38.154Z,19.43
2022-09-28T12:22:46.809Z,19.50
2022-09-28T12:25:55.950Z,13.70
2022-09-28T12:29:01.450Z,15.47
2022-09-28T12:32:11.773Z,11.57
2022-09-28T12:35:16.800Z,12.80
2022-09-28T12:38:38.054Z,9.43
2022-09-28T12:41:56.438Z,12.17
2022-09-28T12:45:20.375Z,10.77
2022-09-28T12:48:40.513Z,11.43
2022-09-28T12:51:49.871Z,11.27
2022-09-28T12:55:18.955Z,9.03
2022-09-28T12:58:36.441Z,8.20
2022-09-28T13:01:59.047Z,8.83
2022-09-28T13:05:17.178Z,7.37
2022-09-28T13:08:26.098Z,8.37
2022-09-28T13:11:34.784Z,9.10
2022-09-28T13:15:02.675Z,9.17
2022-09-28T13:18:12.662Z,9.10
2022-09-28T13:21:28.239Z,7.73
2022-09-28T13:24:36.042Z,6.00
2022-09-28T13:27:45.362Z,8.30
2022-09-28T13:30:50.273Z,6.07
2022-09-28T13:33:53.893Z,7.53
2022-09-28T13:37:19.873Z,5.30
2022-09-28T13:40:57.406Z,5.97
2022-09-28T13:44:33.837Z,6.00
2022-09-28T13:47:53.772Z,8.70
2022-09-28T13:51:21.878Z,6.33
2022-09-28T13:54:51.292Z,8.10
2022-09-28T13:57:57.748Z,6.13
2022-09-28T14:01:08.411Z,6.90
2022-09-28T14:04:16.420Z,6.73
2022-09-28T14:07:22.896Z,5.63
2022-09-28T14:10:51.566Z,6.67
2022-09-28T14:14:02.146Z,6.53
2022-09-28T14:17:53.432Z,6.07
2022-09-28T14:21:12.608Z,7.00
2022-09-28T14:24:27.333Z,5.60
2022-09-28T14:27:45.047Z,6.83
2022-09-28T14:30:52.969Z,7.33
2022-09-28T14:33:58.105Z,7.23
2022-09-28T14:37:22.044Z,6.87
2022-09-28T14:40:49.573Z,4.93
2022-09-28T14:44:03.498Z,5.43
2022-09-28T14:47:34.058Z,8.40
2022-09-28T14:50:36.779Z,5.90
2022-09-28T14:53:41.152Z,7.87
2022-09-28T14:56:48.105Z,4.70
2022-09-28T14:59:50.754Z,6.23
2022-09-28T15:02:56.008Z,5.93
2022-09-28T15:05:58.581Z,4.53
2022-09-28T15:09:02.444Z,5.50
2022-09-28T15:12:08.182Z,8.37
2022-09-28T15:15:26.665Z,7.13
2022-09-28T15:18:55.286Z,7.10
2022-09-28T15:21:57.846Z,7.33
2022-09-28T15:25:03.268Z,8.77
2022-09-28T15:28:19.070Z,4.80
2022-09-28T15:31:23.921Z,7.47
2022-09-28T15:34:49.054Z,5.73
2022-09-28T15:37:52.283Z,6.37
2022-09-28T15:40:56.562Z,6.03
2022-09-28T15:44:09.618Z,5.77
2022-09-28T15:47:14.777Z,3.93
2022-09-28T15:50:23.842Z,4.77
2022-09-28T15:53:27.476Z,3.57
2022-09-28T15:56:32.183Z,7.80
2022-09-28T15:59:36.702Z,5.27
2022-09-28T16:02:39.429Z,6.27
2022-09-28T16:05:46.593Z,6.30
2022-09-28T16:08:49.448Z,5.43
2022-09-28T16:11:53.284Z,6.67
2022-09-28T16:14:56.825Z,4.23
2022-09-28T16:18:02.856Z,8.00
2022-09-28T16:21:40.825Z,6.77
2022-09-28T16:24:43.653Z,4.93
2022-09-28T16:27:47.486Z,5.17
2022-09-28T16:31:01.620Z,11.70
2022-09-28T16:34:19.866Z,5.80
2022-09-28T16:37:32.260Z,6.07
2022-09-28T16:40:40.818Z,7.60
2022-09-28T16:43:45.687Z,7.60
2022-09-28T16:46:48.452Z,7.67
2022-09-28T16:49:51.465Z,10.30
2022-09-28T16:53:29.705Z,10.20
2022-09-28T16:56:32.978Z,7.57
2022-09-28T16:59:38.249Z,8.60
2022-09-28T17:02:46.582Z,8.57
2022-09-28T17:05:49.844Z,5.90
2022-09-28T17:08:52.363Z,9.83
2022-09-28T17:11:56.633Z,8.70
2022-09-28T17:15:00.817Z,16.23
2022-09-28T17:18:03.616Z,8.50
2022-09-28T17:21:10.698Z,8.87
2022-09-28T17:24:13.223Z,7.57
2022-09-28T17:27:20.896Z,7.17
2022-09-28T17:30:25.841Z,9.13
2022-09-28T17:33:29.160Z,9.17
2022-09-28T17:36:31.720Z,8.90
2022-09-28T17:39:34.808Z,11.07
2022-09-28T17:42:37.287Z,13.07
2022-09-28T17:45:41.447Z,11.00
2022-09-28T17:48:46.024Z,12.10
2022-09-28T17:51:50.047Z,10.77
2022-09-28T17:54:52.548Z,12.80
2022-09-28T17:57:55.375Z,14.77
2022-09-28T18:00:59.310Z,13.93
2022-09-28T18:04:02.549Z,13.20
2022-09-28T18:07:05.086Z,11.47
2022-09-28T18:10:08.775Z,12.63
2022-09-28T18:13:11.440Z,12.83
2022-09-28T18:16:15.918Z,17.23
2022-09-28T18:19:18.475Z,19.70
2022-09-28T18:22:20.953Z,15.27
2022-09-28T18:25:23.489Z,13.47
2022-09-28T18:28:26.099Z,17.03
2022-09-28T18:31:30.124Z,16.37
2022-09-28T18:34:36.404Z,13.43
2022-09-28T18:37:39.882Z,18.73
2022-09-28T18:40:43.077Z,16.57
2022-09-28T18:43:50.003Z,17.77
2022-09-28T18:46:54.310Z,24.20
2022-09-28T18:49:58.490Z,19.03
2022-09-28T18:53:11.413Z,18.00
2022-09-28T18:56:18.111Z,19.70
2022-09-28T18:59:20.664Z,17.33
2022-09-28T19:02:24.553Z,17.27
2022-09-28T19:05:27.453Z,16.77
2022-09-28T19:08:29.966Z,17.67
2022-09-28T19:11:32.927Z,16.30
2022-09-28T19:14:35.419Z,16.53
2022-09-28T19:17:39.695Z,16.77
2022-09-28T19:20:42.185Z,18.80
2022-09-28T19:23:49.181Z,18.93
2022-09-28T19:26:53.473Z,21.27
2022-09-28T19:29:55.968Z,20.27
2022-09-28T19:32:59.957Z,18.50
2022-09-28T19:36:05.265Z,17.43
2022-09-28T19:39:07.841Z,18.60
2022-09-28T19:42:10.330Z,20.43
2022-09-28T19:45:12.808Z,20.40
2022-09-28T19:48:16.709Z,20.47
2022-09-28T19:51:19.502Z,19.13
2022-09-28T19:54:22.168Z,19.97
2022-09-28T19:57:25.855Z,19.73
2022-09-28T20:00:28.551Z,18.83
2022-09-28T20:03:32.384Z,20.20
2022-09-28T20:06:34.889Z,21.07
2022-09-28T20:09:37.474Z,20.43
2022-09-28T20:12:42.150Z,18.60
2022-09-28T20:15:45.211Z,20.03
2022-09-28T20:18:50.333Z,24.30
2022-09-28T20:21:52.830Z,21.27
2022-09-28T20:24:55.325Z,18.93
2022-09-28T20:27:58.329Z,22.43
2022-09-28T20:31:03.132Z,17.10
2022-09-28T20:34:07.831Z,21.17
2022-09-28T20:37:12.398Z,19.20
2022-09-28T20:40:14.943Z,19.83
2022-09-28T20:43:17.424Z,20.10
2022-09-28T20:46:21.843Z,26.90
2022-09-28T20:49:27.121Z,21.33
2022-09-28T20:52:29.605Z,17.10
2022-09-28T20:55:32.094Z,19.67
2022-09-28T20:58:35.181Z,18.77
2022-09-28T21:01:37.784Z,21.97
2022-09-28T21:04:41.795Z,19.43
2022-09-28T21:07:44.276Z,19.03
2022-09-28T21:10:46.852Z,18.77
2022-09-28T21:13:52.571Z,19.53
2022-09-28T21:16:55.151Z,16.23
2022-09-28T21:19:59.152Z,19.17
2022-09-28T21:23:02.280Z,17.87
2022-09-28T21:26:06.863Z,18.83
2022-09-28T21:29:13.285Z,18.60
2022-09-28T21:32:15.771Z,18.00
2022-09-28T21:35:19.597Z,17.30
2022-09-28T21:38:22.185Z,22.20
2022-09-28T21:41:25.435Z,17.40
2022-09-28T21:44:28.007Z,16.87
2022-09-28T21:47:30.742Z,20.87
2022-09-28T21:50:34.591Z,19.50
2022-09-28T21:53:38.629Z,18.30
2022-09-28T21:56:41.187Z,17.20
2022-09-28T21:59:43.683Z,31.20
2022-09-28T22:02:46.488Z,16.70
2022-09-28T22:05:53.002Z,18.43
2022-09-28T22:08:55.963Z,17.03
2022-09-28T22:11:58.574Z,16.27
2022-09-28T22:15:01.090Z,16.03
2022-09-28T22:18:03.838Z,17.53
2022-09-28T22:21:09.842Z,17.20
2022-09-28T22:24:12.380Z,14.97
2022-09-28T22:27:16.315Z,18.00
2022-09-28T22:30:18.805Z,12.47
2022-09-28T22:33:21.320Z,15.40
2022-09-28T22:36:25.826Z,14.77
2022-09-28T22:39:28.372Z,19.57
2022-09-28T22:42:32.530Z,12.87
2022-09-28T22:45:35.091Z,15.77
2022-09-28T22:48:38.463Z,16.87
2022-09-28T22:51:42.391Z,14.97
2022-09-28T22:54:45.483Z,15.97
2022-09-28T22:57:48.014Z,13.10
2022-09-28T23:00:50.658Z,13.17
2022-09-28T23:03:54.338Z,15.83
2022-09-28T23:06:58.185Z,15.60
2022-09-28T23:10:00.665Z,15.17
2022-09-28T23:13:03.149Z,17.03
2022-09-28T23:16:07.650Z,27.27
2022-09-28T23:19:10.226Z,25.00
2022-09-28T23:22:14.066Z,15.20
2022-09-28T23:25:17.987Z,11.87
2022-09-28T23:28:21.457Z,12.27
2022-09-28T23:31:26.438Z,17.73
2022-09-28T23:34:28.961Z,11.40
2022-09-28T23:37:32.799Z,11.87
2022-09-28T23:40:35.336Z,10.57
2022-09-28T23:43:37.875Z,11.07
2022-09-28T23:46:40.393Z,12.37
2022-09-28T23:49:42.908Z,11.97
2022-09-28T23:52:48.523Z,12.27
2022-09-28T23:55:50.988Z,11.67
2022-09-28T23:58:53.493Z,9.90
